Time;durP1;ratioP1;P1;durP2;ratioP2;P2;SDS_P1;SDS_P2;PMS_P1;PMS_P2;Temp;Humidity;BMP_temperature;BMP_pressure;BME280_temperature;BME280_humidity;BME280_pressure;Samples;Min_cycle;Max_cycle;Signal;HPM_P1;HPM_P2
2023/11/03 00:01:26;;;;;;;1.90;0.93;;;6.80;99.90;;;;;;5067749;28;20021;-81
2023/11/03 00:03:54;;;;;;;1.20;0.80;;;6.80;99.90;;;;;;5068134;28;20017;-81
2023/11/03 00:06:20;;;;;;;3.07;0.87;;;6.80;99.90;;;;;;5066278;28;20025;-81
2023/11/03 00:08:46;;;;;;;0.87;0.70;;;6.80;99.90;;;;;;5066897;28;20037;-81
2023/11/03 00:11:12;;;;;;;0.93;0.70;;;6.80;99.90;;;;;;5067635;28;20084;-81
2023/11/03 00:13:37;;;;;;;0.73;0.73;;;6.70;99.90;;;;;;5066921;28;20119;-81
2023/11/03 00:16:04;;;;;;;1.23;0.87;;;6.70;99.90;;;;;;5065814;28;20048;-81
2023/11/03 00:18:31;;;;;;;1.67;1.00;;;6.70;99.90;;;;;;5065982;28;20029;-81
2023/11/03 00:20:56;;;;;;;1.40;1.00;;;6.70;99.90;;;;;;5066313;28;20036;-81
2023/11/03 00:23:25;;;;;;;2.67;1.03;;;6.70;99.90;;;;;;5066127;28;20025;-81
2023/11/03 00:25:52;;;;;;;1.73;1.20;;;6.70;99.90;;;;;;5063106;28;20024;-81
2023/11/03 00:28:17;;;;;;;2.93;1.10;;;6.70;99.90;;;;;;5065165;28;20032;-81
2023/11/03 00:30:43;;;;;;;1.70;1.00;;;6.70;99.90;;;;;;5064925;28;20035;-81
2023/11/03 00:33:09;;;;;;;3.23;1.10;;;6.70;99.90;;;;;;5064827;28;20028;-81
2023/11/03 00:35:36;;;;;;;1.33;1.03;;;6.70;99.90;;;;;;5067767;28;20025;-81
2023/11/03 00:38:03;;;;;;;2.33;1.00;;;6.70;99.90;;;;;;5067905;28;20052;-81
2023/11/03 00:40:28;;;;;;;3.30;1.30;;;6.70;99.90;;;;;;5067993;28;20062;-81
2023/11/03 00:42:58;;;;;;;2.40;1.10;;;6.70;99.90;;;;;;5068646;28;20025;-81
2023/11/03 00:45:24;;;;;;;2.57;1.30;;;6.70;99.90;;;;;;5070073;28;20531;-81
2023/11/03 00:47:49;;;;;;;1.57;1.10;;;6.70;99.90;;;;;;5073102;28;20153;-81
2023/11/03 00:50:15;;;;;;;2.33;1.47;;;6.70;99.90;;;;;;5071693;28;20063;-81
2023/11/03 00:52:41;;;;;;;1.63;1.00;;;6.70;99.90;;;;;;5072757;28;20032;-81
2023/11/03 00:55:07;;;;;;;1.50;1.20;;;6.70;99.90;;;;;;5070979;28;20074;-81
2023/11/03 00:57:32;;;;;;;1.37;0.97;;;6.70;99.90;;;;;;5073131;28;21370;-81
2023/11/03 00:59:58;;;;;;;1.63;1.00;;;6.70;99.90;;;;;;5072364;28;20036;-81
2023/11/03 01:02:24;;;;;;;2.43;1.03;;;6.70;99.90;;;;;;5073328;28;20022;-81
2023/11/03 01:04:49;;;;;;;1.60;0.87;;;6.70;99.90;;;;;;5073245;28;20025;-82
2023/11/03 01:07:15;;;;;;;3.37;1.43;;;6.70;99.90;;;;;;5075614;28;20033;-81
2023/11/03 01:09:42;;;;;;;2.80;1.00;;;6.70;99.90;;;;;;5073630;28;20020;-81
2023/11/03 01:12:07;;;;;;;2.27;1.00;;;6.70;99.90;;;;;;5072584;28;20424;-81
2023/11/03 01:14:33;;;;;;;2.97;0.90;;;6.70;99.90;;;;;;5072308;28;20126;-81
2023/11/03 01:17:02;;;;;;;1.20;0.90;;;6.70;99.90;;;;;;5071921;28;20059;-81
2023/11/03 01:19:28;;;;;;;2.20;0.97;;;6.70;99.90;;;;;;5072490;28;20433;-81
2023/11/03 01:21:54;;;;;;;2.20;0.90;;;6.70;99.90;;;;;;5071605;28;20095;-81
2023/11/03 01:24:21;;;;;;;1.73;1.00;;;6.60;99.90;;;;;;5072193;28;20030;-81
2023/11/03 01:26:46;;;;;;;1.83;1.10;;;6.70;99.90;;;;;;5070847;28;20048;-81
2023/11/03 01:29:12;;;;;;;1.53;0.90;;;6.60;99.90;;;;;;5071709;28;20028;-81
2023/11/03 01:31:38;;;;;;;2.97;0.97;;;6.60;99.90;;;;;;5072022;28;20028;-81
2023/11/03 01:34:06;;;;;;;1.03;0.83;;;6.60;99.90;;;;;;5071716;28;20483;-81
2023/11/03 01:36:35;;;;;;;1.70;1.00;;;6.60;99.90;;;;;;5071198;28;20024;-81
2023/11/03 01:39:01;;;;;;;0.97;0.77;;;6.60;99.90;;;;;;5071827;28;20040;-81
2023/11/03 01:41:26;;;;;;;2.03;0.80;;;6.70;99.90;;;;;;5073119;28;20020;-81
2023/11/03 01:44:14;;;;;;;5.47;1.07;;;6.60;99.90;;;;;;5076746;28;20035;-81
2023/11/03 01:46:40;;;;;;;1.07;0.90;;;6.60;99.90;;;;;;5079914;28;20040;-81
2023/11/03 01:49:08;;;;;;;1.63;1.10;;;6.60;99.90;;;;;;5097813;28;20028;-81
2023/11/03 01:51:34;;;;;;;1.47;1.03;;;6.60;99.90;;;;;;5101935;28;20034;-80
2023/11/03 01:54:04;;;;;;;2.40;0.90;;;6.50;99.90;;;;;;5092465;28;20040;-81
2023/11/03 01:56:31;;;;;;;4.13;1.20;;;6.50;99.90;;;;;;5071753;28;20078;-81
2023/11/03 01:59:00;;;;;;;2.20;1.20;;;6.50;99.90;;;;;;5070585;28;21018;-81
2023/11/03 02:01:27;;;;;;;2.07;0.80;;;6.50;99.90;;;;;;5071324;28;20152;-81
2023/11/03 02:03:53;;;;;;;4.93;1.30;;;6.50;99.90;;;;;;5070585;28;20028;-81
2023/11/03 02:06:20;;;;;;;5.00;1.63;;;6.50;99.90;;;;;;5069935;28;20028;-81
2023/11/03 02:08:46;;;;;;;5.30;1.60;;;6.50;99.90;;;;;;5070307;28;20139;-81
2023/11/03 02:11:11;;;;;;;6.27;2.30;;;6.40;99.90;;;;;;5071181;28;20024;-81
2023/11/03 02:13:37;;;;;;;7.17;2.50;;;6.50;99.90;;;;;;5071077;28;20020;-81
2023/11/03 02:16:03;;;;;;;11.73;3.63;;;6.40;99.90;;;;;;5072428;28;20023;-81
2023/11/03 02:18:30;;;;;;;13.07;4.60;;;6.50;99.90;;;;;;5073425;28;20036;-81
2023/11/03 02:20:56;;;;;;;11.17;3.90;;;6.50;99.90;;;;;;5071482;28;20030;-81
2023/11/03 02:23:21;;;;;;;9.47;2.60;;;6.50;99.90;;;;;;5073519;28;20024;-81
2023/11/03 02:25:47;;;;;;;4.23;1.60;;;6.50;99.90;;;;;;5071188;28;20055;-81
2023/11/03 02:28:13;;;;;;;3.43;1.50;;;6.40;99.90;;;;;;5070217;28;20119;-81
2023/11/03 02:30:39;;;;;;;3.60;1.53;;;6.40;99.90;;;;;;5070480;28;20110;-81
2023/11/03 02:33:06;;;;;;;2.53;1.47;;;6.50;99.90;;;;;;5070617;28;20568;-81
2023/11/03 02:35:32;;;;;;;2.87;1.37;;;6.40;99.90;;;;;;5069805;28;20035;-81
2023/11/03 02:37:58;;;;;;;3.37;1.20;;;6.40;99.90;;;;;;5070821;28;20039;-81
2023/11/03 02:40:24;;;;;;;1.67;1.10;;;6.50;99.90;;;;;;5070176;28;20080;-81
2023/11/03 02:42:49;;;;;;;2.27;1.17;;;6.50;99.90;;;;;;5069624;28;20035;-81
2023/11/03 02:45:15;;;;;;;2.70;1.17;;;6.50;99.90;;;;;;5070123;28;20032;-81
2023/11/03 02:47:40;;;;;;;1.93;1.13;;;6.50;99.90;;;;;;5070539;28;20056;-81
2023/11/03 02:50:07;;;;;;;5.47;1.20;;;6.50;99.90;;;;;;5070496;28;20020;-81
2023/11/03 02:52:33;;;;;;;3.80;1.30;;;6.40;99.90;;;;;;5070523;28;20514;-81
2023/11/03 02:54:58;;;;;;;2.17;1.20;;;6.50;99.90;;;;;;5068995;28;20020;-81
2023/11/03 02:57:24;;;;;;;1.83;1.23;;;6.40;99.90;;;;;;5069771;28;20436;-81
2023/11/03 02:59:49;;;;;;;2.87;1.30;;;6.50;99.90;;;;;;5069738;28;20042;-81
2023/11/03 03:02:15;;;;;;;2.53;1.30;;;6.50;99.90;;;;;;5070770;28;20020;-81
2023/11/03 03:04:41;;;;;;;1.83;1.30;;;6.50;99.90;;;;;;5069944;28;20021;-81
2023/11/03 03:07:06;;;;;;;3.43;1.30;;;6.50;99.90;;;;;;5068953;28;20036;-81
2023/11/03 03:09:32;;;;;;;3.03;1.47;;;6.50;99.90;;;;;;5069288;28;20039;-81
2023/11/03 03:11:58;;;;;;;2.20;1.20;;;6.50;99.90;;;;;;5069367;28;20009;-81
2023/11/03 03:14:23;;;;;;;5.10;1.37;;;6.40;99.90;;;;;;5069290;28;21012;-81
2023/11/03 03:16:50;;;;;;;3.20;1.30;;;6.40;99.90;;;;;;5068871;28;20020;-81
2023/11/03 03:19:16;;;;;;;2.90;1.40;;;6.40;99.90;;;;;;5069026;28;20139;-81
2023/11/03 03:21:42;;;;;;;4.77;1.40;;;6.40;99.90;;;;;;5069456;28;20166;-81
2023/11/03 03:24:07;;;;;;;4.53;1.93;;;6.40;99.90;;;;;;5069224;28;20020;-81
2023/11/03 03:26:33;;;;;;;4.67;1.60;;;6.50;99.90;;;;;;5068796;28;20491;-81
2023/11/03 03:28:59;;;;;;;3.87;1.57;;;6.40;99.90;;;;;;5069150;28;20033;-81
2023/11/03 03:31:24;;;;;;;4.03;1.50;;;6.40;99.90;;;;;;5069459;28;20021;-81
2023/11/03 03:33:50;;;;;;;3.23;1.83;;;6.40;99.90;;;;;;5069205;28;20074;-81
2023/11/03 03:36:16;;;;;;;2.77;1.60;;;6.40;99.90;;;;;;5069069;28;20024;-81
2023/11/03 03:38:42;;;;;;;4.60;1.93;;;6.40;99.90;;;;;;5068546;28;20400;-81
2023/11/03 03:41:12;;;;;;;3.73;1.50;;;6.40;99.90;;;;;;5069281;28;20021;-81
2023/11/03 03:43:38;;;;;;;4.03;1.50;;;6.40;99.90;;;;;;5069588;28;20031;-81
2023/11/03 03:46:04;;;;;;;3.23;1.43;;;6.40;99.90;;;;;;5068532;28;20032;-81
2023/11/03 03:48:29;;;;;;;3.27;1.40;;;6.40;99.90;;;;;;5067301;28;20040;-81
2023/11/03 03:50:55;;;;;;;4.03;1.50;;;6.40;99.90;;;;;;5069171;28;20032;-81
2023/11/03 03:53:20;;;;;;;5.97;1.50;;;6.40;99.90;;;;;;5068929;28;20024;-81
2023/11/03 03:55:46;;;;;;;6.97;1.60;;;6.40;99.90;;;;;;5068595;28;20024;-81
2023/11/03 03:58:11;;;;;;;4.60;1.40;;;6.40;99.90;;;;;;5068654;28;20020;-81
2023/11/03 04:00:37;;;;;;;3.47;1.50;;;6.40;99.90;;;;;;5068279;28;20036;-81
2023/11/03 04:03:03;;;;;;;3.03;1.47;;;6.40;99.90;;;;;;5068339;28;20025;-81
2023/11/03 04:05:28;;;;;;;4.10;1.67;;;6.30;99.90;;;;;;5067500;28;20480;-81
2023/11/03 04:07:54;;;;;;;5.67;1.70;;;6.40;99.90;;;;;;5067260;28;20099;-81
2023/11/03 04:10:20;;;;;;;4.17;1.57;;;6.40;99.90;;;;;;5067675;28;20024;-81
2023/11/03 04:12:46;;;;;;;7.23;1.80;;;6.40;99.90;;;;;;5066145;28;20031;-81
2023/11/03 04:15:11;;;;;;;4.87;1.90;;;6.40;99.90;;;;;;5068583;28;20028;-81
2023/11/03 04:17:37;;;;;;;5.10;1.93;;;6.30;99.90;;;;;;5068487;28;20108;-81
2023/11/03 04:20:04;;;;;;;4.00;1.90;;;6.40;99.90;;;;;;5072333;28;20723;-81
2023/11/03 04:22:29;;;;;;;4.87;1.87;;;6.30;99.90;;;;;;5074297;28;20040;-81
2023/11/03 04:24:55;;;;;;;13.73;2.57;;;6.40;99.90;;;;;;5073488;28;20449;-81
2023/11/03 04:27:21;;;;;;;2.80;1.10;;;6.30;99.90;;;;;;5070608;28;20040;-81
2023/11/03 04:29:46;;;;;;;3.67;1.97;;;6.30;99.90;;;;;;5070027;28;20390;-81
2023/11/03 04:32:12;;;;;;;6.63;1.87;;;6.40;99.90;;;;;;5073460;28;20054;-81
2023/11/03 04:34:39;;;;;;;4.10;1.40;;;6.40;99.90;;;;;;5074476;28;20019;-81
2023/11/03 04:37:05;;;;;;;8.07;2.10;;;6.40;99.90;;;;;;5074944;28;20033;-81
2023/11/03 04:39:30;;;;;;;5.07;1.50;;;6.30;99.90;;;;;;5077775;28;20099;-81
2023/11/03 04:41:56;;;;;;;5.33;1.63;;;6.40;99.90;;;;;;5078236;28;20031;-81
2023/11/03 04:44:22;;;;;;;6.20;1.93;;;6.40;99.90;;;;;;5078286;28;20035;-82
2023/11/03 04:46:48;;;;;;;4.10;1.50;;;6.30;99.90;;;;;;5094045;28;20047;-80
2023/11/03 04:49:15;;;;;;;4.07;1.40;;;6.40;99.90;;;;;;5101998;28;20080;-81
2023/11/03 04:51:41;;;;;;;4.73;1.40;;;6.30;99.90;;;;;;5094101;28;20028;-81
2023/11/03 04:54:07;;;;;;;4.73;1.67;;;6.30;99.90;;;;;;5074161;28;20109;-82
2023/11/03 04:56:33;;;;;;;6.00;1.63;;;6.30;99.90;;;;;;5071625;28;20060;-81
2023/11/03 04:58:58;;;;;;;4.43;1.70;;;6.40;99.90;;;;;;5073071;28;20040;-81
2023/11/03 05:01:24;;;;;;;4.37;2.00;;;6.40;99.90;;;;;;5072584;28;20017;-81
2023/11/03 05:03:49;;;;;;;7.20;1.77;;;6.30;99.90;;;;;;5073168;28;20058;-81
2023/11/03 05:06:16;;;;;;;5.90;2.13;;;6.40;99.90;;;;;;5073327;28;20084;-81
2023/11/03 05:08:42;;;;;;;5.33;1.73;;;6.40;99.90;;;;;;5073658;28;21501;-81
2023/11/03 05:11:07;;;;;;;4.57;1.67;;;6.40;99.90;;;;;;5072927;28;20024;-81
2023/11/03 05:13:33;;;;;;;4.07;1.60;;;6.40;99.90;;;;;;5073268;28;20028;-81
2023/11/03 05:16:00;;;;;;;6.03;1.60;;;6.40;99.90;;;;;;5071290;28;20048;-81
2023/11/03 05:18:27;;;;;;;3.07;1.63;;;6.40;99.90;;;;;;5071828;28;20169;-81
2023/11/03 05:20:53;;;;;;;6.67;2.70;;;6.40;99.90;;;;;;5070757;28;20052;-81
2023/11/03 05:23:18;;;;;;;9.00;1.80;;;6.40;99.90;;;;;;5070967;28;21511;-81
2023/11/03 05:25:44;;;;;;;8.17;1.90;;;6.40;99.90;;;;;;5070356;28;20028;-81
2023/11/03 05:28:10;;;;;;;6.17;2.13;;;6.40;99.90;;;;;;5070271;28;20163;-81
2023/11/03 05:30:36;;;;;;;4.57;1.50;;;6.40;99.90;;;;;;5070476;28;20033;-80
2023/11/03 05:33:02;;;;;;;6.40;1.43;;;6.40;99.90;;;;;;5069517;28;20024;-81
2023/11/03 05:35:28;;;;;;;4.73;1.63;;;6.40;99.90;;;;;;5068481;28;20031;-81
2023/11/03 05:37:54;;;;;;;7.33;1.50;;;6.40;99.90;;;;;;5068022;28;20468;-81
2023/11/03 05:40:20;;;;;;;5.17;1.70;;;6.40;99.90;;;;;;5068017;28;20039;-81
2023/11/03 05:42:46;;;;;;;5.97;1.80;;;6.40;99.90;;;;;;5068202;28;20020;-81
2023/11/03 05:45:13;;;;;;;5.63;2.20;;;6.40;99.90;;;;;;5067543;28;20031;-81
2023/11/03 05:47:39;;;;;;;6.67;1.83;;;6.40;99.90;;;;;;5068750;28;20040;-81
2023/11/03 05:50:07;;;;;;;4.47;1.50;;;6.40;99.90;;;;;;5069112;28;20406;-81
2023/11/03 05:52:32;;;;;;;8.90;2.00;;;6.40;99.90;;;;;;5070077;28;20029;-81
2023/11/03 05:54:58;;;;;;;7.67;2.60;;;6.40;99.90;;;;;;5069055;28;20023;-81
2023/11/03 05:57:23;;;;;;;5.80;1.40;;;6.40;99.90;;;;;;5067390;28;20143;-81
2023/11/03 05:59:50;;;;;;;6.07;1.80;;;6.30;99.90;;;;;;5070115;28;20032;-81
2023/11/03 06:02:15;;;;;;;11.00;3.03;;;6.30;99.90;;;;;;5070586;28;20020;-81
2023/11/03 06:04:41;;;;;;;6.33;1.70;;;6.30;99.90;;;;;;5069398;28;20501;-81
2023/11/03 06:07:07;;;;;;;5.43;1.50;;;6.30;99.90;;;;;;5069861;28;20394;-81
2023/11/03 06:09:34;;;;;;;3.77;1.60;;;6.30;99.90;;;;;;5068921;28;20028;-82
2023/11/03 06:12:02;;;;;;;5.10;1.40;;;6.30;99.90;;;;;;5070756;28;20043;-81
2023/11/03 06:14:29;;;;;;;3.73;1.50;;;6.30;99.90;;;;;;5069833;28;20028;-82
2023/11/03 06:16:54;;;;;;;5.13;1.67;;;6.30;99.90;;;;;;5069718;28;20024;-81
2023/11/03 06:19:21;;;;;;;7.00;1.60;;;6.30;99.90;;;;;;5068888;28;20208;-81
2023/11/03 06:21:46;;;;;;;4.57;1.97;;;6.30;99.90;;;;;;5068725;28;20481;-81
2023/11/03 06:24:12;;;;;;;6.07;1.63;;;6.30;99.90;;;;;;5069750;28;20054;-81
2023/11/03 06:26:38;;;;;;;5.40;1.67;;;6.30;99.90;;;;;;5068980;28;20403;-82
2023/11/03 06:29:03;;;;;;;5.10;1.87;;;6.30;99.90;;;;;;5069943;28;20013;-82
2023/11/03 06:31:31;;;;;;;5.07;1.97;;;6.30;99.90;;;;;;5069449;28;20505;-82
2023/11/03 06:33:56;;;;;;;5.23;1.50;;;6.30;99.90;;;;;;5067862;28;20035;-81
2023/11/03 06:36:22;;;;;;;5.43;1.93;;;6.40;99.90;;;;;;5069115;28;20028;-81
2023/11/03 06:38:48;;;;;;;8.57;2.10;;;6.30;99.90;;;;;;5068877;28;20024;-81
2023/11/03 06:41:13;;;;;;;7.80;1.70;;;6.40;99.90;;;;;;5068795;28;20178;-82
2023/11/03 06:43:39;;;;;;;5.23;1.87;;;6.40;99.90;;;;;;5068997;28;20044;-82
2023/11/03 06:46:09;;;;;;;7.13;2.07;;;6.40;99.90;;;;;;5069046;28;20174;-81
2023/11/03 06:48:36;;;;;;;5.00;2.00;;;6.40;99.90;;;;;;5069644;28;20063;-81
2023/11/03 06:51:01;;;;;;;5.90;1.73;;;6.30;99.90;;;;;;5069974;28;20035;-81
2023/11/03 06:53:28;;;;;;;6.57;2.43;;;6.40;99.90;;;;;;5069299;28;20028;-82
2023/11/03 06:55:54;;;;;;;5.97;1.80;;;6.40;99.90;;;;;;5069869;28;20117;-82
2023/11/03 06:58:19;;;;;;;9.43;1.80;;;6.40;99.90;;;;;;5069340;28;20145;-82
2023/11/03 07:00:46;;;;;;;4.43;1.57;;;6.40;99.90;;;;;;5070198;28;20074;-81
2023/11/03 07:03:12;;;;;;;5.40;1.60;;;6.40;99.90;;;;;;5071033;28;20100;-82
2023/11/03 07:05:38;;;;;;;4.47;1.60;;;6.40;99.90;;;;;;5069226;28;20172;-81
2023/11/03 07:08:04;;;;;;;6.10;1.87;;;6.40;99.90;;;;;;5069865;28;20059;-82
2023/11/03 07:10:30;;;;;;;6.50;1.80;;;6.40;99.90;;;;;;5069795;28;20103;-82
2023/11/03 07:12:56;;;;;;;6.20;1.70;;;6.40;99.90;;;;;;5070350;28;20483;-82
2023/11/03 07:15:23;;;;;;;5.67;1.70;;;6.40;99.90;;;;;;5070649;28;20025;-82
2023/11/03 07:17:49;;;;;;;4.10;1.53;;;6.40;99.90;;;;;;5070183;28;20028;-82
2023/11/03 07:20:15;;;;;;;5.87;1.60;;;6.50;99.90;;;;;;5070448;28;20025;-82
2023/11/03 07:22:40;;;;;;;6.57;1.70;;;6.50;99.90;;;;;;5068779;28;20040;-82
2023/11/03 07:25:06;;;;;;;3.43;1.50;;;6.50;99.90;;;;;;5068663;28;20039;-82
2023/11/03 07:27:32;;;;;;;5.07;1.67;;;6.50;99.90;;;;;;5068817;28;20106;-82
2023/11/03 07:29:58;;;;;;;15.90;2.77;;;6.50;99.90;;;;;;5069138;28;20036;-82
2023/11/03 07:32:23;;;;;;;4.47;1.57;;;6.50;99.90;;;;;;5069720;28;20024;-82
2023/11/03 07:34:49;;;;;;;2.93;1.40;;;6.50;99.90;;;;;;5069811;28;20062;-82
2023/11/03 07:37:15;;;;;;;3.90;1.53;;;6.50;99.90;;;;;;5072510;28;20202;-82
2023/11/03 07:39:41;;;;;;;7.23;2.00;;;6.50;99.90;;;;;;5073796;28;20020;-83
2023/11/03 07:42:07;;;;;;;5.67;2.10;;;6.50;99.90;;;;;;5073959;28;20047;-82
2023/11/03 07:44:32;;;;;;;5.73;2.53;;;6.50;99.90;;;;;;5097193;28;20019;-82
2023/11/03 07:46:58;;;;;;;4.77;1.90;;;6.50;99.90;;;;;;5104192;28;20047;-81
2023/11/03 07:49:23;;;;;;;5.43;2.37;;;6.50;99.90;;;;;;5090967;28;20121;-82
2023/11/03 07:51:49;;;;;;;4.60;1.70;;;6.50;99.90;;;;;;5068638;28;20022;-82
2023/11/03 07:54:15;;;;;;;4.97;1.67;;;6.60;99.90;;;;;;5067188;28;20013;-83
2023/11/03 07:56:43;;;;;;;4.97;2.03;;;6.60;99.90;;;;;;5066754;28;20051;-83
2023/11/03 07:59:08;;;;;;;5.30;1.70;;;6.60;99.90;;;;;;5066841;28;20162;-82
2023/11/03 08:01:34;;;;;;;3.93;1.63;;;6.60;99.90;;;;;;5066519;28;21507;-83
2023/11/03 08:04:00;;;;;;;4.37;1.80;;;6.60;99.90;;;;;;5066233;28;20040;-82
2023/11/03 08:06:26;;;;;;;5.37;1.80;;;6.60;99.90;;;;;;5065889;28;20036;-82
2023/11/03 08:08:51;;;;;;;10.50;2.33;;;6.60;99.90;;;;;;5066115;28;20027;-82
2023/11/03 08:11:17;;;;;;;3.97;1.63;;;6.60;99.90;;;;;;5065537;28;20487;-82
2023/11/03 08:13:43;;;;;;;3.93;1.67;;;6.60;99.90;;;;;;5065381;28;20035;-82
2023/11/03 08:16:08;;;;;;;3.80;1.50;;;6.70;99.90;;;;;;5065560;28;20116;-82
2023/11/03 08:18:34;;;;;;;9.67;2.43;;;6.70;99.90;;;;;;5064830;28;20485;-82
2023/11/03 08:21:00;;;;;;;5.90;1.80;;;6.70;99.90;;;;;;5064188;28;20036;-82
2023/11/03 08:23:26;;;;;;;5.90;2.00;;;6.70;99.90;;;;;;5065347;28;20154;-82
2023/11/03 08:25:52;;;;;;;5.73;1.60;;;6.80;99.90;;;;;;5063606;28;20052;-82
2023/11/03 08:28:17;;;;;;;5.47;1.67;;;6.80;99.90;;;;;;5065990;28;20117;-83
2023/11/03 08:30:43;;;;;;;6.43;1.60;;;6.80;99.90;;;;;;5069224;28;20040;-82
2023/11/03 08:33:09;;;;;;;7.07;1.50;;;6.90;99.90;;;;;;5067893;28;20082;-83
2023/11/03 08:35:35;;;;;;;6.17;1.47;;;7.00;99.90;;;;;;5067227;28;20136;-83
2023/11/03 08:38:03;;;;;;;5.70;1.67;;;7.00;99.90;;;;;;5068226;28;20139;-82
2023/11/03 08:40:29;;;;;;;5.07;1.80;;;7.10;99.90;;;;;;5068375;28;20021;-83
2023/11/03 08:42:54;;;;;;;4.57;1.70;;;7.10;99.90;;;;;;5068350;28;20054;-83
2023/11/03 08:45:20;;;;;;;2.70;1.53;;;7.10;99.90;;;;;;5067681;28;20029;-83
2023/11/03 08:47:46;;;;;;;7.70;1.80;;;7.20;99.90;;;;;;5069091;28;21308;-82
2023/11/03 08:50:16;;;;;;;6.90;1.97;;;7.20;99.90;;;;;;5068406;28;20557;-83
2023/11/03 08:52:44;;;;;;;5.77;1.60;;;7.30;99.90;;;;;;5068383;28;20023;-83
2023/11/03 08:55:11;;;;;;;4.23;1.63;;;7.30;99.90;;;;;;5067140;28;20024;-83
2023/11/03 08:57:38;;;;;;;6.83;1.83;;;7.30;99.90;;;;;;5068964;28;20031;-83
2023/11/03 09:00:09;;;;;;;6.60;1.77;;;7.30;99.90;;;;;;5068966;28;20040;-82
2023/11/03 09:02:40;;;;;;;9.53;2.00;;;7.40;99.90;;;;;;5071981;28;20036;-83
2023/11/03 09:05:09;;;;;;;6.30;1.97;;;7.40;99.90;;;;;;5068343;28;20025;-83
2023/11/03 09:07:35;;;;;;;5.50;1.50;;;7.40;99.90;;;;;;5072177;28;20035;-82
2023/11/03 09:10:12;;;;;;;5.23;1.97;;;7.40;99.90;;;;;;5072317;28;21433;-82
2023/11/03 09:12:42;;;;;;;3.83;1.50;;;7.40;99.90;;;;;;5072358;28;20024;-82
2023/11/03 09:15:09;;;;;;;7.40;1.60;;;7.40;99.90;;;;;;5072349;28;20783;-82
2023/11/03 09:17:36;;;;;;;8.17;1.87;;;7.50;99.90;;;;;;5073084;28;20032;-82
2023/11/03 09:20:04;;;;;;;6.53;1.73;;;7.50;99.90;;;;;;5071625;28;20052;-83
2023/11/03 09:22:30;;;;;;;5.57;1.70;;;7.50;99.90;;;;;;5073052;28;20444;-83
2023/11/03 09:24:57;;;;;;;6.17;1.40;;;7.50;99.90;;;;;;5071298;28;20032;-83
2023/11/03 09:27:26;;;;;;;5.83;1.60;;;7.60;99.90;;;;;;5071218;28;20399;-82
2023/11/03 09:29:51;;;;;;;6.73;1.63;;;7.60;99.90;;;;;;5072689;28;20051;-83
2023/11/03 09:32:17;;;;;;;7.07;2.37;;;7.60;99.90;;;;;;5072574;28;20055;-83
2023/11/03 09:34:46;;;;;;;7.13;1.57;;;7.60;99.90;;;;;;5069201;28;20024;-83
2023/11/03 09:37:15;;;;;;;9.20;2.10;;;7.60;99.90;;;;;;5070628;28;20076;-83
2023/11/03 09:39:42;;;;;;;4.03;1.30;;;7.70;99.90;;;;;;5070095;28;20024;-83
2023/11/03 09:42:10;;;;;;;6.17;1.60;;;7.70;99.90;;;;;;5069893;28;20025;-83
2023/11/03 09:44:37;;;;;;;3.73;1.30;;;7.70;99.90;;;;;;5068109;28;20032;-83
2023/11/03 09:47:05;;;;;;;9.17;1.90;;;7.70;99.90;;;;;;5068567;28;20029;-83
2023/11/03 09:49:31;;;;;;;4.80;1.70;;;7.80;99.90;;;;;;5069095;28;20092;-83
2023/11/03 09:52:03;;;;;;;9.47;2.13;;;7.80;99.90;;;;;;5067719;28;20063;-83
2023/11/03 09:54:34;;;;;;;4.63;1.73;;;7.80;99.90;;;;;;5068285;28;20055;-83
2023/11/03 09:57:08;;;;;;;7.33;1.77;;;7.80;99.90;;;;;;5068151;28;20038;-82
2023/11/03 09:59:35;;;;;;;6.10;1.70;;;7.80;99.90;;;;;;5066671;28;20044;-83
2023/11/03 10:02:09;;;;;;;5.73;2.03;;;7.80;99.90;;;;;;5067935;28;20024;-83
2023/11/03 10:04:38;;;;;;;5.00;1.60;;;7.70;99.90;;;;;;5068022;28;20114;-83
2023/11/03 10:07:05;;;;;;;7.87;1.80;;;7.70;99.90;;;;;;5070628;28;20028;-83
2023/11/03 10:09:32;;;;;;;6.23;1.70;;;7.70;99.90;;;;;;5070307;28;20235;-83
2023/11/03 10:11:59;;;;;;;5.27;1.80;;;7.70;99.90;;;;;;5070383;28;20020;-82
2023/11/03 10:14:24;;;;;;;5.07;1.83;;;7.70;99.90;;;;;;5069476;28;20046;-83
2023/11/03 10:16:51;;;;;;;5.00;2.03;;;7.80;99.90;;;;;;5068667;28;20036;-83
2023/11/03 10:19:19;;;;;;;6.27;2.20;;;7.80;99.90;;;;;;5069912;28;20020;-83
2023/11/03 10:21:46;;;;;;;8.43;2.10;;;7.80;99.90;;;;;;5069183;28;20024;-83
2023/11/03 10:24:15;;;;;;;5.43;2.00;;;7.80;99.90;;;;;;5069317;28;20032;-83
2023/11/03 10:26:41;;;;;;;4.93;1.70;;;7.80;99.90;;;;;;5069674;28;20029;-83
2023/11/03 10:29:07;;;;;;;6.87;1.70;;;7.80;99.90;;;;;;5071679;28;20040;-84
2023/11/03 10:31:32;;;;;;;8.27;1.90;;;7.70;99.90;;;;;;5070459;28;20051;-83
2023/11/03 10:33:58;;;;;;;6.37;1.60;;;7.70;99.90;;;;;;5073092;28;20031;-84
2023/11/03 10:36:26;;;;;;;6.63;1.77;;;7.70;99.90;;;;;;5075643;28;20013;-84
2023/11/03 10:38:54;;;;;;;6.87;2.00;;;7.80;99.90;;;;;;5086289;28;20070;-82
2023/11/03 10:41:20;;;;;;;7.07;1.60;;;7.80;99.90;;;;;;5104428;28;20016;-83
2023/11/03 10:43:55;;;;;;;3.50;1.60;;;7.80;99.90;;;;;;5105634;28;20015;-82
2023/11/03 10:46:33;;;;;;;9.03;2.00;;;7.70;99.90;;;;;;5080360;28;20048;-82
2023/11/03 10:49:24;;;;;;;14.70;2.47;;;7.60;99.90;;;;;;5070695;28;20495;-82
2023/11/03 10:52:13;;;;;;;9.00;2.20;;;7.60;99.90;;;;;;5070512;28;20066;-81
2023/11/03 10:54:50;;;;;;;7.67;2.20;;;7.50;99.90;;;;;;5069196;28;20396;-82
2023/11/03 10:57:18;;;;;;;7.50;3.27;;;7.40;99.90;;;;;;5068716;28;20480;-81
2023/11/03 10:59:49;;;;;;;6.50;2.13;;;7.30;99.90;;;;;;5071252;28;20029;-81
2023/11/03 11:02:29;;;;;;;7.53;1.90;;;7.30;99.90;;;;;;5070169;28;20020;-81
2023/11/03 11:05:08;;;;;;;9.40;2.17;;;7.30;99.90;;;;;;5068777;28;20024;-81
2023/11/03 11:07:36;;;;;;;10.90;2.10;;;7.30;99.90;;;;;;5069153;28;20063;-81
2023/11/03 11:10:02;;;;;;;8.17;2.10;;;7.40;99.90;;;;;;5069325;28;20021;-81
2023/11/03 11:12:48;;;;;;;5.73;2.20;;;7.40;99.90;;;;;;5069177;28;20078;-81
2023/11/03 11:15:21;;;;;;;10.20;1.90;;;7.50;99.90;;;;;;5066413;28;20518;-81
2023/11/03 11:17:46;;;;;;;6.93;2.70;;;7.50;99.90;;;;;;5069587;28;20024;-81
2023/11/03 11:20:17;;;;;;;6.10;1.93;;;7.50;99.90;;;;;;5068903;28;20023;-80
2023/11/03 11:22:46;;;;;;;4.93;1.80;;;7.50;99.90;;;;;;5069679;28;20028;-80
2023/11/03 11:25:13;;;;;;;6.53;1.67;;;7.40;99.90;;;;;;5068293;28;20044;-80
2023/11/03 11:27:48;;;;;;;5.40;1.90;;;7.30;99.90;;;;;;5068773;28;20170;-80
2023/11/03 11:30:15;;;;;;;5.60;2.28;;;7.20;99.90;;;;;;5068863;28;20610;-80
2023/11/03 11:33:02;;;;;;;5.07;1.93;;;7.20;99.90;;;;;;5069071;28;21157;-80
2023/11/03 11:35:37;;;;;;;6.60;2.13;;;7.10;99.90;;;;;;5068066;28;20044;-80
2023/11/03 11:38:03;;;;;;;7.93;2.00;;;7.10;99.90;;;;;;5069381;28;20073;-81
2023/11/03 11:40:28;;;;;;;4.37;1.70;;;7.10;99.90;;;;;;5069625;28;20029;-81
2023/11/03 11:42:56;;;;;;;8.13;1.63;;;7.00;99.90;;;;;;5068496;28;20048;-80
2023/11/03 11:45:23;;;;;;;5.07;1.57;;;6.90;99.90;;;;;;5067998;28;20037;-80
2023/11/03 11:47:50;;;;;;;8.60;2.43;;;6.70;99.90;;;;;;5066226;28;20586;-81
2023/11/03 11:50:17;;;;;;;7.63;1.83;;;6.70;99.90;;;;;;5066114;28;20028;-81
2023/11/03 11:52:48;;;;;;;6.50;1.60;;;6.70;99.90;;;;;;5066664;28;20036;-81
2023/11/03 11:55:13;;;;;;;6.70;1.80;;;6.60;99.90;;;;;;5065661;28;20035;-81
2023/11/03 11:57:42;;;;;;;4.10;1.60;;;6.60;99.90;;;;;;5066274;28;20028;-81
2023/11/03 12:00:12;;;;;;;6.90;1.70;;;6.60;99.90;;;;;;5066068;28;20052;-80
2023/11/03 12:02:39;;;;;;;7.13;1.90;;;6.60;99.90;;;;;;5066124;28;20032;-80
2023/11/03 12:05:06;;;;;;;8.63;2.20;;;6.60;99.90;;;;;;5064976;28;20036;-81
2023/11/03 12:07:33;;;;;;;4.07;1.70;;;6.60;99.90;;;;;;5065221;28;20036;-81
2023/11/03 12:09:59;;;;;;;5.50;2.00;;;6.60;99.90;;;;;;5065744;28;20032;-81
2023/11/03 12:12:24;;;;;;;6.00;1.93;;;6.70;99.90;;;;;;5066113;28;20031;-81
2023/11/03 12:14:51;;;;;;;8.00;2.03;;;6.70;99.90;;;;;;5064645;28;20036;-81
2023/11/03 12:17:21;;;;;;;4.97;1.70;;;6.80;99.90;;;;;;5063999;28;20032;-80
2023/11/03 12:19:48;;;;;;;6.43;1.90;;;6.80;99.90;;;;;;5063319;28;20105;-81
2023/11/03 12:22:25;;;;;;;6.47;1.90;;;6.80;99.90;;;;;;5065163;28;20028;-81
2023/11/03 12:24:55;;;;;;;7.13;1.97;;;6.90;99.90;;;;;;5062440;28;20032;-81
2023/11/03 12:27:22;;;;;;;6.23;2.30;;;6.90;99.90;;;;;;5066680;28;20174;-81
2023/11/03 12:29:48;;;;;;;8.10;1.93;;;7.00;99.90;;;;;;5067964;28;20035;-81
2023/11/03 12:32:14;;;;;;;6.30;2.17;;;7.00;99.90;;;;;;5066817;28;20028;-81
2023/11/03 12:34:42;;;;;;;4.60;2.13;;;7.00;99.90;;;;;;5066842;28;20467;-80
2023/11/03 12:37:09;;;;;;;7.77;3.10;;;7.00;99.90;;;;;;5067382;28;20058;-81
2023/11/03 12:39:47;;;;;;;10.17;2.30;;;7.00;99.90;;;;;;5068026;28;20036;-81
2023/11/03 12:42:13;;;;;;;4.37;1.70;;;7.00;99.90;;;;;;5069352;28;20039;-80
2023/11/03 12:44:56;;;;;;;7.90;1.70;;;7.10;99.90;;;;;;5070645;28;20020;-81
2023/11/03 12:47:45;;;;;;;8.03;2.13;;;7.10;99.90;;;;;;5070918;28;20446;-81
2023/11/03 12:50:34;;;;;;;3.50;1.63;;;7.10;99.90;;;;;;5070350;28;20154;-81
2023/11/03 12:53:07;;;;;;;5.80;1.90;;;7.00;99.90;;;;;;5070701;28;20024;-81
2023/11/03 12:55:36;;;;;;;9.13;2.70;;;7.10;99.90;;;;;;5070023;28;20029;-80
2023/11/03 12:58:10;;;;;;;4.97;1.80;;;7.10;99.90;;;;;;5069491;28;20584;-80